Time;durP1;ratioP1;P1;durP2;ratioP2;P2;SDS_P1;SDS_P2;PMS_P1;PMS_P2;Temp;Humidity;BMP_temperature;BMP_pressure;BME280_temperature;BME280_humidity;BME280_pressure;Samples;Min_cycle;Max_cycle;Signal;HPM_P1;HPM_P2
2021/10/06 00:00:14;;;;;;;1.33;1.23;;;;;;;10.73;93.55;96575.66;5073733;28;20208;-74
2021/10/06 00:02:40;;;;;;;2.17;1.40;;;;;;;10.78;93.02;96570.50;5073471;28;20212;-74
2021/10/06 00:05:06;;;;;;;2.07;1.30;;;;;;;10.87;93.08;96567.53;5073952;28;20627;-74
2021/10/06 00:07:31;;;;;;;1.93;1.20;;;;;;;10.89;92.73;96581.19;5073423;28;20173;-74
2021/10/06 00:09:56;;;;;;;0.90;0.90;;;;;;;10.83;93.42;96580.28;5073231;28;20255;-74
2021/10/06 00:12:22;;;;;;;1.07;1.07;;;;;;;10.68;94.12;96583.44;5055331;28;20181;-74
2021/10/06 00:14:47;;;;;;;1.23;1.23;;;;;;;10.75;94.25;96583.31;5055440;28;20318;-74
2021/10/06 00:17:13;;;;;;;1.00;1.00;;;;;;;10.76;94.37;96582.25;5073659;28;20685;-74
2021/10/06 00:19:38;;;;;;;1.37;1.13;;;;;;;10.59;95.29;96590.03;5073045;28;20197;-74
2021/10/06 00:22:04;;;;;;;1.40;1.30;;;;;;;10.64;95.05;96589.38;5073617;28;20205;-74
2021/10/06 00:24:29;;;;;;;1.30;1.20;;;;;;;10.78;94.28;96591.50;5073330;28;20192;-74
2021/10/06 00:26:55;;;;;;;1.90;1.10;;;;;;;10.66;94.85;96598.56;5072727;28;20588;-74
2021/10/06 00:29:20;;;;;;;2.67;1.07;;;;;;;10.46;96.16;96595.53;5073773;28;20200;-75
2021/10/06 00:31:45;;;;;;;1.33;1.00;;;;;;;10.40;96.74;96593.84;5073172;28;20272;-75
2021/10/06 00:34:11;;;;;;;3.10;1.00;;;;;;;10.25;97.68;96599.53;5073284;28;20189;-75
2021/10/06 00:36:36;;;;;;;1.13;1.10;;;;;;;10.30;97.49;96599.66;5072738;28;20637;-74
2021/10/06 00:39:02;;;;;;;0.90;0.90;;;;;;;10.26;98.15;96595.88;5071937;28;20308;-75
2021/10/06 00:41:27;;;;;;;1.17;0.97;;;;;;;10.32;97.30;96607.28;5072858;28;20276;-75
2021/10/06 00:43:53;;;;;;;1.03;0.90;;;;;;;10.36;96.83;96606.63;5072212;28;20265;-75
2021/10/06 00:46:18;;;;;;;1.83;1.10;;;;;;;10.41;96.43;96600.69;5072875;28;20186;-75
2021/10/06 00:48:44;;;;;;;1.30;1.20;;;;;;;10.32;96.97;96613.31;5054879;28;20193;-75
2021/10/06 00:51:12;;;;;;;1.27;1.10;;;;;;;10.23;97.63;96606.84;5072586;28;20177;-75
2021/10/06 00:53:38;;;;;;;1.30;1.20;;;;;;;10.44;95.60;96600.22;5054605;28;20239;-75
2021/10/06 00:56:03;;;;;;;2.47;0.90;;;;;;;10.28;96.15;96611.38;5072786;28;20169;-75
2021/10/06 00:58:29;;;;;;;1.03;0.90;;;;;;;10.19;96.84;96603.09;5072688;28;20208;-74
2021/10/06 01:00:54;;;;;;;2.03;1.13;;;;;;;10.24;95.95;96605.03;5072421;28;20184;-75
2021/10/06 01:03:21;;;;;;;3.10;1.03;;;;;;;10.15;96.40;96611.56;5072343;28;20181;-74
2021/10/06 01:05:53;;;;;;;1.17;1.13;;;;;;;10.08;96.70;96611.72;5072161;28;20181;-75
2021/10/06 01:08:18;;;;;;;1.10;1.00;;;;;;;10.13;97.04;96618.88;5059864;28;20177;-74
2021/10/06 01:10:45;;;;;;;1.60;1.50;;;;;;;10.02;96.97;96625.72;5072592;28;20224;-75
2021/10/06 01:13:11;;;;;;;1.10;1.00;;;;;;;10.08;96.15;96626.63;5072743;28;20197;-75
2021/10/06 01:15:36;;;;;;;2.37;1.20;;;;;;;9.91;97.47;96629.91;5072167;28;20185;-75
2021/10/06 01:18:02;;;;;;;6.33;1.10;;;;;;;10.00;97.21;96620.69;5072449;28;20192;-75
2021/10/06 01:20:27;;;;;;;1.00;1.00;;;;;;;10.03;96.29;96620.22;5071903;28;20181;-75
2021/10/06 01:22:53;;;;;;;1.27;1.07;;;;;;;10.07;95.81;96623.22;5071667;28;20181;-75
2021/10/06 01:25:18;;;;;;;2.47;1.10;;;;;;;9.97;96.38;96636.84;5071382;28;20188;-75
2021/10/06 01:27:44;;;;;;;0.83;0.83;;;;;;;9.93;96.98;96627.03;5072267;28;20232;-74
2021/10/06 01:30:14;;;;;;;0.90;0.90;;;;;;;9.87;97.74;96630.56;5072774;28;20195;-74
2021/10/06 01:32:41;;;;;;;1.33;1.17;;;;;;;9.84;97.83;96637.06;5072112;28;20684;-74
2021/10/06 01:35:09;;;;;;;3.90;1.40;;;;;;;9.68;99.05;96634.31;5072101;28;20268;-75
2021/10/06 01:37:35;;;;;;;1.80;1.33;;;;;;;9.92;97.69;96641.16;5072157;28;20173;-75
2021/10/06 01:40:04;;;;;;;1.30;1.13;;;;;;;9.85;97.57;96633.44;5071817;28;20213;-75
2021/10/06 01:42:30;;;;;;;2.13;1.40;;;;;;;9.82;97.58;96640.91;5071670;28;20216;-75
2021/10/06 01:44:55;;;;;;;2.73;1.03;;;;;;;9.86;97.80;96642.09;5053820;28;20569;-75
2021/10/06 01:47:22;;;;;;;3.80;1.37;;;;;;;9.66;98.97;96659.88;5054025;28;20173;-75
2021/10/06 01:49:48;;;;;;;1.77;1.30;;;;;;;9.72;98.90;96656.38;5072009;28;20280;-75
2021/10/06 01:52:18;;;;;;;1.20;1.07;;;;;;;9.49;100.00;96651.88;5072401;28;20271;-75
2021/10/06 01:54:44;;;;;;;2.20;1.50;;;;;;;9.68;99.29;96661.28;5071997;28;20185;-75
2021/10/06 01:57:10;;;;;;;1.07;0.93;;;;;;;9.73;98.92;96663.22;5072032;28;20173;-75
2021/10/06 01:59:36;;;;;;;1.57;1.47;;;;;;;9.70;99.03;96664.44;5071326;28;20205;-75
2021/10/06 02:02:02;;;;;;;1.97;1.30;;;;;;;9.63;99.58;96674.22;5072655;28;20591;-74
2021/10/06 02:04:27;;;;;;;1.10;1.07;;;;;;;9.56;99.85;96676.13;5071843;28;20185;-75
2021/10/06 02:06:53;;;;;;;4.00;1.40;;;;;;;9.68;99.59;96678.78;5071930;28;20177;-75
2021/10/06 02:09:18;;;;;;;1.83;1.20;;;;;;;9.60;100.00;96682.50;5071633;28;20193;-75
2021/10/06 02:11:43;;;;;;;1.20;1.20;;;;;;;9.49;100.00;96678.03;5070906;28;20309;-75
2021/10/06 02:14:09;;;;;;;1.73;1.40;;;;;;;9.58;100.00;96677.50;5072199;28;20200;-75
2021/10/06 02:16:34;;;;;;;2.50;1.70;;;;;;;9.54;100.00;96678.97;5071607;28;20178;-75
2021/10/06 02:18:59;;;;;;;1.40;1.30;;;;;;;9.50;100.00;96677.81;5071905;28;20201;-75
2021/10/06 02:21:25;;;;;;;1.40;1.30;;;;;;;9.48;100.00;96679.84;5071756;28;20189;-75
2021/10/06 02:23:50;;;;;;;1.10;1.10;;;;;;;9.58;100.00;96687.19;5071814;28;20193;-75
2021/10/06 02:26:15;;;;;;;1.73;1.00;;;;;;;9.50;100.00;96677.81;5071315;28;20247;-75
2021/10/06 02:28:41;;;;;;;1.70;1.30;;;;;;;9.60;100.00;96685.91;5072008;28;20196;-75
2021/10/06 02:31:06;;;;;;;1.93;1.27;;;;;;;9.54;100.00;96684.19;5073734;28;20181;-76
2021/10/06 02:33:32;;;;;;;1.63;1.47;;;;;;;9.52;100.00;96681.03;5075129;28;20212;-75
2021/10/06 02:35:57;;;;;;;3.23;1.40;;;;;;;9.37;100.00;96685.81;5075527;28;20217;-75
2021/10/06 02:38:23;;;;;;;5.73;1.23;;;;;;;9.47;100.00;96677.47;5074893;28;20212;-75
2021/10/06 02:40:48;;;;;;;1.07;1.07;;;;;;;9.52;100.00;96680.22;5075622;28;20626;-75
2021/10/06 02:43:13;;;;;;;1.20;1.10;;;;;;;9.56;100.00;96682.16;5056855;28;20189;-75
2021/10/06 02:45:39;;;;;;;2.43;1.27;;;;;;;9.65;99.66;96684.44;5075039;28;20688;-75
2021/10/06 02:48:05;;;;;;;1.10;1.10;;;;;;;9.46;100.00;96689.75;5075321;28;20185;-75
2021/10/06 02:50:31;;;;;;;1.03;1.03;;;;;;;9.23;100.00;96686.22;5074542;28;20232;-75
2021/10/06 02:52:57;;;;;;;2.10;1.20;;;;;;;9.19;100.00;96684.03;5075281;28;20177;-75
2021/10/06 02:55:23;;;;;;;1.73;1.10;;;;;;;9.29;100.00;96683.53;5075091;28;20302;-75
2021/10/06 02:57:49;;;;;;;4.10;1.50;;;;;;;9.39;100.00;96693.47;5074481;28;20189;-75
2021/10/06 03:00:15;;;;;;;2.70;1.13;;;;;;;9.11;100.00;96688.78;5057065;28;20217;-75
2021/10/06 03:02:40;;;;;;;1.10;1.10;;;;;;;9.04;100.00;96698.50;5074684;28;20189;-75
2021/10/06 03:05:07;;;;;;;1.80;1.50;;;;;;;9.00;100.00;96695.53;5056998;28;20707;-75
2021/10/06 03:07:33;;;;;;;1.73;1.27;;;;;;;9.12;100.00;96699.03;5074828;28;20200;-75
2021/10/06 03:09:58;;;;;;;1.30;1.20;;;;;;;9.12;100.00;96704.25;5056540;28;20217;-75
2021/10/06 03:12:24;;;;;;;1.70;1.10;;;;;;;9.17;100.00;96699.16;5074483;28;20188;-75
2021/10/06 03:14:49;;;;;;;1.83;1.20;;;;;;;9.16;100.00;96702.78;5074815;28;20189;-75
2021/10/06 03:17:14;;;;;;;3.70;1.30;;;;;;;9.24;100.00;96709.56;5074824;28;20189;-75
2021/10/06 03:19:40;;;;;;;2.10;1.40;;;;;;;9.27;100.00;96698.63;5074754;28;20200;-75
2021/10/06 03:22:05;;;;;;;2.97;1.30;;;;;;;9.27;100.00;96714.31;5074523;28;20195;-75
2021/10/06 03:24:30;;;;;;;2.00;1.37;;;;;;;9.19;100.00;96717.25;5056336;28;20189;-75
2021/10/06 03:26:56;;;;;;;6.00;1.70;;;;;;;9.40;100.00;96710.75;5074431;28;20553;-75
2021/10/06 03:29:21;;;;;;;1.30;1.20;;;;;;;9.44;100.00;96724.97;5073909;28;20192;-75
2021/10/06 03:31:46;;;;;;;2.90;1.40;;;;;;;9.47;100.00;96725.34;5074535;28;20189;-75
2021/10/06 03:34:12;;;;;;;2.10;1.30;;;;;;;9.50;100.00;96721.50;5074132;28;20189;-75
2021/10/06 03:36:37;;;;;;;1.50;1.40;;;;;;;9.25;100.00;96724.19;5074384;28;20227;-75
2021/10/06 03:39:03;;;;;;;1.63;1.50;;;;;;;9.32;100.00;96724.94;5073403;28;20668;-75
2021/10/06 03:41:28;;;;;;;2.40;1.30;;;;;;;9.38;100.00;96724.06;5056408;28;20611;-75
2021/10/06 03:43:54;;;;;;;1.30;1.20;;;;;;;9.26;100.00;96727.63;5072637;28;20264;-75
2021/10/06 03:46:19;;;;;;;2.63;1.67;;;;;;;9.51;99.99;96730.94;5074032;28;20196;-75
2021/10/06 03:48:45;;;;;;;1.13;1.03;;;;;;;9.31;100.00;96730.38;5073095;28;20642;-75
2021/10/06 03:51:11;;;;;;;1.80;1.43;;;;;;;9.38;100.00;96734.50;5074066;28;20264;-75
2021/10/06 03:53:37;;;;;;;4.37;1.50;;;;;;;9.16;100.00;96734.16;5073633;28;20467;-75
2021/10/06 03:56:03;;;;;;;1.53;1.20;;;;;;;9.28;100.00;96733.44;5075532;28;20192;-74
2021/10/06 03:58:28;;;;;;;2.27;1.30;;;;;;;9.37;99.74;96729.50;5074481;28;20232;-75
2021/10/06 04:00:54;;;;;;;1.17;1.17;;;;;;;9.37;100.00;96735.53;5074128;28;20184;-75
2021/10/06 04:03:21;;;;;;;2.77;2.00;;;;;;;9.31;99.87;96741.63;5073898;28;20312;-74
2021/10/06 04:05:46;;;;;;;1.40;1.30;;;;;;;9.25;100.00;96742.50;5073272;28;20230;-75
2021/10/06 04:08:12;;;;;;;1.20;1.20;;;;;;;9.37;100.00;96747.81;5073384;28;20593;-75
2021/10/06 04:10:38;;;;;;;1.80;1.20;;;;;;;9.37;98.67;96743.38;5072962;28;20245;-75
2021/10/06 04:13:03;;;;;;;1.17;1.07;;;;;;;9.38;99.06;96749.41;5054935;28;20700;-75
2021/10/06 04:15:29;;;;;;;1.30;1.20;;;;;;;9.20;99.68;96747.59;5073527;28;20193;-75
2021/10/06 04:17:54;;;;;;;1.93;1.13;;;;;;;9.29;99.55;96754.16;5073209;28;20216;-75
2021/10/06 04:20:20;;;;;;;1.27;1.10;;;;;;;9.24;98.86;96750.59;5073550;28;20217;-75
2021/10/06 04:22:45;;;;;;;1.77;1.30;;;;;;;9.28;98.91;96768.25;5073470;28;20552;-75
2021/10/06 04:25:11;;;;;;;1.43;1.10;;;;;;;9.38;98.22;96760.66;5072990;28;20181;-73
2021/10/06 04:27:36;;;;;;;0.90;0.90;;;;;;;9.39;97.88;96762.28;5073147;28;20592;-74
2021/10/06 04:30:06;;;;;;;1.20;1.10;;;;;;;9.31;98.93;96778.25;5072241;28;20185;-74
2021/10/06 04:32:32;;;;;;;1.53;0.87;;;;;;;9.32;98.30;96779.06;5073731;28;20181;-73
2021/10/06 04:34:58;;;;;;;3.60;1.17;;;;;;;9.41;98.27;96777.75;5073094;28;20181;-74
2021/10/06 04:37:23;;;;;;;2.50;1.00;;;;;;;9.58;96.93;96776.16;5073208;28;20653;-74
2021/10/06 04:39:48;;;;;;;1.20;1.07;;;;;;;9.49;98.19;96772.22;5071764;28;20539;-74
2021/10/06 04:42:14;;;;;;;1.20;0.80;;;;;;;9.71;96.39;96785.63;5055112;28;20713;-74
2021/10/06 04:44:39;;;;;;;0.90;0.90;;;;;;;9.71;95.29;96783.81;5072989;28;20185;-74
2021/10/06 04:47:05;;;;;;;1.40;0.90;;;;;;;9.58;96.26;96789.22;5072896;28;20688;-74
2021/10/06 04:49:30;;;;;;;0.90;0.77;;;;;;;9.62;95.75;96787.75;5072865;28;20181;-74
2021/10/06 04:51:56;;;;;;;1.33;0.80;;;;;;;9.66;95.49;96785.50;5073119;28;20224;-74
2021/10/06 04:54:21;;;;;;;0.80;0.70;;;;;;;9.73;94.74;96787.03;5071409;28;20207;-74
2021/10/06 04:56:46;;;;;;;2.00;1.00;;;;;;;9.54;95.41;96782.81;5055275;28;20649;-74
2021/10/06 04:59:12;;;;;;;1.07;0.80;;;;;;;9.72;94.13;96785.41;5072875;28;20212;-75
2021/10/06 05:01:37;;;;;;;1.13;0.90;;;;;;;9.42;95.90;96795.81;5072362;28;20264;-75
2021/10/06 05:04:03;;;;;;;2.27;1.00;;;;;;;9.56;94.63;96792.06;5073186;28;20181;-75
2021/10/06 05:06:28;;;;;;;0.80;0.73;;;;;;;9.49;95.31;96801.78;5072319;28;20657;-75
2021/10/06 05:08:54;;;;;;;0.70;0.70;;;;;;;9.73;94.38;96794.06;5072602;28;20184;-74
2021/10/06 05:11:22;;;;;;;0.97;0.87;;;;;;;9.63;94.14;96791.19;5072530;28;20217;-75
2021/10/06 05:13:47;;;;;;;0.67;0.67;;;;;;;9.47;95.72;96803.81;5071784;28;20630;-75
2021/10/06 05:16:13;;;;;;;0.90;0.90;;;;;;;9.76;93.61;96798.84;5072479;28;20189;-75
2021/10/06 05:18:38;;;;;;;2.43;1.07;;;;;;;9.70;94.42;96807.56;5072338;28;20197;-75
2021/10/06 05:21:04;;;;;;;0.80;0.80;;;;;;;9.78;94.00;96821.19;5072954;28;20338;-75
2021/10/06 05:23:32;;;;;;;0.73;0.70;;;;;;;9.88;92.99;96818.84;5072620;28;20185;-75
2021/10/06 05:25:58;;;;;;;2.10;0.90;;;;;;;9.83;93.27;96821.31;5072167;28;20192;-75
2021/10/06 05:28:23;;;;;;;4.83;1.00;;;;;;;9.92;92.84;96821.78;5072591;28;20180;-75
2021/10/06 05:30:49;;;;;;;1.57;1.47;;;;;;;9.81;93.54;96822.53;5072662;28;20213;-75
2021/10/06 05:33:14;;;;;;;2.07;1.00;;;;;;;10.07;92.05;96830.06;5072615;28;20189;-75
2021/10/06 05:35:40;;;;;;;1.33;1.00;;;;;;;10.03;92.31;96826.28;5072858;28;20216;-75
2021/10/06 05:38:06;;;;;;;5.20;0.90;;;;;;;9.96;92.77;96833.44;5072410;28;20514;-75
2021/10/06 05:40:31;;;;;;;1.90;1.10;;;;;;;10.02;91.90;96824.72;5072137;28;20184;-75
2021/10/06 05:42:57;;;;;;;1.43;0.93;;;;;;;10.05;92.15;96829.50;5072434;28;20512;-74
2021/10/06 05:45:22;;;;;;;4.43;1.00;;;;;;;10.06;91.97;96830.28;5072060;28;20192;-74
2021/10/06 05:47:47;;;;;;;1.07;1.00;;;;;;;10.14;91.25;96838.63;5072066;28;20250;-74
2021/10/06 05:50:13;;;;;;;0.90;0.90;;;;;;;10.02;92.24;96832.56;5071825;28;20193;-75
2021/10/06 05:52:38;;;;;;;4.57;1.00;;;;;;;9.90;95.00;96837.75;5071388;28;20700;-74
2021/10/06 05:55:05;;;;;;;1.20;1.07;;;;;;;9.97;95.01;96835.06;5069989;28;20185;-74
2021/10/06 05:57:30;;;;;;;3.63;0.97;;;;;;;9.97;93.79;96843.69;5067047;28;20177;-74
2021/10/06 05:59:55;;;;;;;2.57;1.23;;;;;;;9.93;94.68;96852.19;5071950;28;20546;-75
2021/10/06 06:02:21;;;;;;;1.40;1.30;;;;;;;10.02;93.69;96851.69;5071471;28;20522;-75
2021/10/06 06:04:46;;;;;;;1.80;1.23;;;;;;;10.17;92.85;96850.53;5071154;28;20212;-75
2021/10/06 06:07:12;;;;;;;1.87;1.30;;;;;;;10.15;93.02;96852.53;5074855;28;20200;-73
2021/10/06 06:09:37;;;;;;;2.23;1.33;;;;;;;10.37;92.07;96861.50;5074909;28;20216;-73
2021/10/06 06:12:04;;;;;;;1.23;1.07;;;;;;;10.35;91.93;96863.56;5050932;28;20649;-72
2021/10/06 06:14:30;;;;;;;1.33;0.95;;;;;;;10.32;91.08;96864.00;5053261;28;20439;-73
2021/10/06 06:16:56;;;;;;;1.93;1.00;;;;;;;10.28;90.91;96858.44;5055937;28;20186;-73
2021/10/06 06:19:21;;;;;;;3.80;1.10;;;;;;;10.51;89.32;96867.38;5053893;28;20209;-73
2021/10/06 06:21:47;;;;;;;3.30;1.27;;;;;;;10.40;89.72;96867.13;5055234;28;20216;-73
2021/10/06 06:24:12;;;;;;;0.93;0.90;;;;;;;10.53;88.70;96875.81;5054368;28;20243;-74
2021/10/06 06:26:38;;;;;;;2.67;1.00;;;;;;;10.40;89.64;96861.88;5054226;28;20186;-74
2021/10/06 06:29:04;;;;;;;0.87;0.87;;;;;;;10.30;89.95;96868.69;5052615;28;20190;-74
2021/10/06 06:31:29;;;;;;;1.17;1.07;;;;;;;10.31;90.35;96863.19;5054293;28;20182;-74
2021/10/06 06:33:55;;;;;;;2.37;1.20;;;;;;;10.24;90.46;96866.94;5054454;28;20181;-73
2021/10/06 06:36:20;;;;;;;3.20;1.27;;;;;;;10.20;90.59;96871.00;5054364;28;20186;-70
2021/10/06 06:38:46;;;;;;;3.10;1.00;;;;;;;10.90;96.13;96871.22;5053693;28;20292;-69
2021/10/06 06:41:11;;;;;;;1.87;1.10;;;;;;;11.35;92.79;96876.72;5055052;28;20611;-70
2021/10/06 06:43:36;;;;;;;1.23;1.13;;;;;;;11.49;87.69;96885.94;5054259;28;20265;-69
2021/10/06 06:46:02;;;;;;;3.90;1.07;;;;;;;11.38;84.98;96882.31;5052845;28;20186;-75
2021/10/06 06:48:27;;;;;;;1.90;0.90;;;;;;;11.43;84.41;96886.84;5053734;28;20178;-75
2021/10/06 06:50:53;;;;;;;0.90;0.90;;;;;;;11.48;83.63;96885.16;5054567;28;20189;-75
2021/10/06 06:53:26;;;;;;;6.53;1.10;;;;;;;11.40;84.13;96889.97;5055048;28;20182;-75
2021/10/06 06:55:52;;;;;;;1.00;1.00;;;;;;;11.67;83.08;96896.31;5054749;28;20170;-75
2021/10/06 06:58:17;;;;;;;1.07;1.00;;;;;;;11.67;81.94;96898.94;5055172;28;20521;-75
2021/10/06 07:00:43;;;;;;;2.60;0.97;;;;;;;11.61;81.82;96899.88;5054911;28;20618;-75
2021/10/06 07:03:08;;;;;;;0.77;0.70;;;;;;;11.36;81.92;96902.75;5054940;28;20214;-75
2021/10/06 07:05:33;;;;;;;1.77;1.03;;;;;;;11.20;82.67;96911.31;5054580;28;20189;-75
2021/10/06 07:07:59;;;;;;;0.80;0.80;;;;;;;11.17;83.31;96914.34;5054946;28;20282;-75
2021/10/06 07:10:24;;;;;;;5.37;1.07;;;;;;;11.26;82.77;96913.78;5060415;28;20286;-75
2021/10/06 07:12:49;;;;;;;3.37;1.00;;;;;;;11.49;81.84;96914.81;5074070;28;20186;-75
2021/10/06 07:15:16;;;;;;;1.03;0.70;;;;;;;11.67;81.85;96923.38;5049934;28;20481;-75
2021/10/06 07:17:41;;;;;;;2.40;1.00;;;;;;;11.84;80.55;96930.59;5072425;28;20203;-74
2021/10/06 07:20:08;;;;;;;0.90;0.90;;;;;;;11.85;79.57;96933.00;5073977;28;20232;-75
2021/10/06 07:22:33;;;;;;;1.93;0.93;;;;;;;11.96;78.40;96934.00;5074067;28;20189;-74
2021/10/06 07:25:00;;;;;;;1.97;0.80;;;;;;;11.86;79.01;96937.22;5073288;28;20181;-74
2021/10/06 07:27:25;;;;;;;2.03;0.90;;;;;;;11.97;78.01;96941.66;5073383;28;20188;-75
2021/10/06 07:29:51;;;;;;;1.30;1.00;;;;;;;11.92;77.68;96933.66;5074457;28;20639;-75
2021/10/06 07:32:16;;;;;;;3.20;1.00;;;;;;;11.93;78.07;96927.38;5073909;28;20276;-75
2021/10/06 07:34:42;;;;;;;2.67;0.93;;;;;;;12.01;77.37;96945.41;5073812;28;20181;-75
2021/10/06 07:37:07;;;;;;;0.93;0.87;;;;;;;12.07;77.10;96941.06;5074111;28;20174;-75
2021/10/06 07:39:33;;;;;;;2.17;0.90;;;;;;;12.20;77.19;96953.94;5073712;28;20723;-75
2021/10/06 07:41:58;;;;;;;2.77;1.13;;;;;;;12.24;76.53;96944.56;5074307;28;20190;-75
2021/10/06 07:44:24;;;;;;;2.57;1.00;;;;;;;12.32;75.19;96953.88;5073551;28;20193;-75
2021/10/06 07:46:49;;;;;;;4.53;1.00;;;;;;;12.32;75.06;96959.16;5073837;28;20233;-75
2021/10/06 07:49:15;;;;;;;0.90;0.73;;;;;;;12.74;73.35;96952.59;5073360;28;20231;-75
2021/10/06 07:51:40;;;;;;;3.03;1.10;;;;;;;12.95;73.10;96955.59;5073226;28;20235;-75
2021/10/06 07:54:06;;;;;;;1.60;0.70;;;;;;;12.96;72.04;96959.81;5073308;28;20268;-75
2021/10/06 07:56:31;;;;;;;0.70;0.70;;;;;;;12.85;72.11;96967.53;5073461;28;20195;-74
2021/10/06 07:58:57;;;;;;;1.50;0.70;;;;;;;12.76;72.43;96966.31;5073170;28;20205;-74
2021/10/06 08:01:22;;;;;;;1.40;0.80;;;;;;;12.89;71.88;96979.19;5055898;28;20600;-74
2021/10/06 08:03:48;;;;;;;1.10;1.00;;;;;;;13.05;71.79;96985.50;5072428;28;20602;-74
2021/10/06 08:06:13;;;;;;;1.63;0.70;;;;;;;13.13;70.84;96972.00;5073549;28;20238;-74
2021/10/06 08:08:38;;;;;;;2.33;0.97;;;;;;;13.13;70.59;96984.34;5073494;28;20181;-74
2021/10/06 08:11:04;;;;;;;1.53;0.97;;;;;;;13.52;69.94;96980.78;5073206;28;20313;-74
2021/10/06 08:13:30;;;;;;;4.10;1.07;;;;;;;13.66;68.83;96976.78;5072876;28;20637;-74
2021/10/06 08:15:57;;;;;;;2.23;1.00;;;;;;;13.81;67.99;96975.41;5071694;28;20258;-74
2021/10/06 08:18:23;;;;;;;0.77;0.77;;;;;;;13.75;68.09;96982.44;5072609;28;20231;-74
2021/10/06 08:20:50;;;;;;;1.67;0.90;;;;;;;14.11;67.08;96979.25;5073486;28;20217;-74
2021/10/06 08:23:17;;;;;;;1.43;0.90;;;;;;;14.21;66.54;96980.44;5073466;28;20197;-74
2021/10/06 08:25:44;;;;;;;1.37;0.97;;;;;;;14.11;66.90;96991.63;5072815;28;20184;-75
2021/10/06 08:28:10;;;;;;;3.07;1.00;;;;;;;14.38;65.63;96989.91;5072737;28;20186;-74
2021/10/06 08:30:36;;;;;;;2.13;0.83;;;;;;;14.65;65.28;96997.91;5072846;28;20189;-75
2021/10/06 08:33:01;;;;;;;1.70;0.80;;;;;;;14.60;63.83;96989.91;5070375;28;20235;-75
2021/10/06 08:35:27;;;;;;;0.70;0.70;;;;;;;15.05;63.12;96994.06;5070538;28;20182;-75
2021/10/06 08:37:52;;;;;;;0.73;0.70;;;;;;;14.84;62.72;96999.16;5071941;28;20209;-75
2021/10/06 08:40:17;;;;;;;1.00;0.90;;;;;;;14.93;62.85;97002.91;5054058;28;20205;-75
2021/10/06 08:42:43;;;;;;;1.40;0.80;;;;;;;15.02;62.37;97000.66;5071915;28;20641;-75
2021/10/06 08:45:09;;;;;;;3.37;1.00;;;;;;;14.81;62.78;97004.94;5072080;28;20184;-75
2021/10/06 08:47:39;;;;;;;1.83;0.80;;;;;;;14.63;63.40;97005.25;5054356;28;20238;-75
2021/10/06 08:50:07;;;;;;;3.87;1.07;;;;;;;14.49;63.96;97004.00;5065752;28;20188;-75
2021/10/06 08:52:32;;;;;;;2.23;0.80;;;;;;;14.46;63.68;97007.16;5072444;28;20300;-75
2021/10/06 08:54:58;;;;;;;3.57;0.90;;;;;;;14.32;63.76;97011.19;5072294;28;20192;-75
2021/10/06 08:57:23;;;;;;;0.70;0.70;;;;;;;14.08;63.64;97010.59;5072105;28;20199;-75
2021/10/06 08:59:49;;;;;;;3.57;1.20;;;;;;;13.70;64.93;97001.63;5071792;28;20201;-75
2021/10/06 09:02:15;;;;;;;1.80;0.83;;;;;;;13.54;66.11;97020.84;5071936;28;20178;-75
2021/10/06 09:04:42;;;;;;;2.10;1.23;;;;;;;13.43;68.29;97021.72;5071854;28;20192;-75
2021/10/06 09:07:08;;;;;;;2.90;1.10;;;;;;;13.06;72.40;97018.69;5072100;28;20181;-75
2021/10/06 09:09:37;;;;;;;2.07;1.07;;;;;;;13.03;73.51;97024.44;5072154;28;20223;-75
2021/10/06 09:12:17;;;;;;;2.60;0.97;;;;;;;13.11;73.40;97024.03;5071885;28;20189;-75
2021/10/06 09:14:47;;;;;;;2.30;0.90;;;;;;;13.39;72.09;97028.50;5071070;28;20173;-76
2021/10/06 09:17:18;;;;;;;1.80;1.00;;;;;;;13.32;71.62;97020.75;5071963;28;20169;-75
2021/10/06 09:19:53;;;;;;;1.83;1.10;;;;;;;13.83;70.05;97021.56;5070131;28;20669;-75
2021/10/06 09:22:27;;;;;;;3.60;1.10;;;;;;;13.63;68.09;97027.31;5070819;28;20169;-75
2021/10/06 09:25:02;;;;;;;1.70;1.00;;;;;;;13.79;66.84;97019.66;5071320;28;20176;-75
2021/10/06 09:27:30;;;;;;;2.00;0.97;;;;;;;13.88;66.22;97018.19;5052889;28;20180;-75
2021/10/06 09:30:16;;;;;;;0.80;0.80;;;;;;;14.03;65.35;97028.97;5071317;28;20192;-75
2021/10/06 09:32:43;;;;;;;2.77;1.07;;;;;;;13.91;64.31;97026.44;5072154;28;20184;-76
2021/10/06 09:35:13;;;;;;;0.97;0.80;;;;;;;14.11;64.48;97023.25;5066209;28;20177;-75
2021/10/06 09:37:46;;;;;;;2.00;1.00;;;;;;;14.32;64.00;97029.63;5052615;28;20170;-75
2021/10/06 09:40:14;;;;;;;1.67;0.70;;;;;;;14.77;62.68;97030.19;5065352;28;20215;-75
2021/10/06 09:42:41;;;;;;;3.50;0.90;;;;;;;14.66;62.99;97031.13;5076397;28;20204;-75
2021/10/06 09:45:07;;;;;;;1.00;0.70;;;;;;;14.72;62.95;97031.97;5075046;28;20184;-75
2021/10/06 09:47:35;;;;;;;1.00;0.73;;;;;;;14.88;62.55;97039.03;5074847;28;20614;-76
2021/10/06 09:50:02;;;;;;;1.50;1.00;;;;;;;15.22;61.28;97045.72;5075100;28;20919;-75
2021/10/06 09:52:31;;;;;;;0.67;0.60;;;;;;;15.56;60.06;97033.13;5076055;28;20192;-75
2021/10/06 09:55:04;;;;;;;2.80;1.10;;;;;;;15.54;60.08;97029.97;5070958;28;20589;-75
2021/10/06 09:57:34;;;;;;;0.60;0.60;;;;;;;15.69;59.96;97040.63;5074842;28;20220;-75
2021/10/06 10:00:11;;;;;;;1.07;0.70;;;;;;;16.13;58.32;97032.47;5075722;28;20599;-75
2021/10/06 10:02:37;;;;;;;1.00;0.90;;;;;;;16.30;57.35;97043.69;5072369;28;20226;-75
2021/10/06 10:05:04;;;;;;;0.87;0.80;;;;;;;15.96;57.39;97040.56;5075109;28;20819;-75
2021/10/06 10:07:30;;;;;;;0.90;0.70;;;;;;;15.73;59.15;97040.91;5075803;28;20182;-76
2021/10/06 10:09:56;;;;;;;2.70;0.73;;;;;;;15.19;59.91;97037.50;5074427;28;21044;-75
2021/10/06 10:12:24;;;;;;;1.47;0.80;;;;;;;14.78;60.36;97047.63;5075210;28;20596;-75
2021/10/06 10:14:51;;;;;;;0.70;0.70;;;;;;;14.71;61.65;97051.50;5074863;28;20238;-75
2021/10/06 10:17:17;;;;;;;1.07;0.70;;;;;;;14.53;64.56;97068.44;5075549;28;20634;-75
2021/10/06 10:19:44;;;;;;;0.93;0.80;;;;;;;14.20;67.69;97063.22;5078587;28;20654;-75
2021/10/06 10:22:12;;;;;;;1.50;1.17;;;;;;;13.33;71.10;97072.38;5075881;28;20181;-76
2021/10/06 10:24:46;;;;;;;4.53;0.90;;;;;;;12.26;74.66;97076.50;5075353;28;20192;-75
2021/10/06 10:27:14;;;;;;;2.50;1.10;;;;;;;12.41;75.51;97083.94;5057122;28;20181;-74
2021/10/06 10:29:44;;;;;;;1.03;0.93;;;;;;;12.46;76.94;97086.69;5075467;28;20185;-75
2021/10/06 10:32:13;;;;;;;2.20;1.20;;;;;;;12.78;76.85;97087.06;5074237;28;20181;-75
2021/10/06 10:34:58;;;;;;;1.13;1.10;;;;;;;12.76;75.31;97083.91;5075361;28;20665;-76
2021/10/06 10:37:49;;;;;;;4.30;1.40;;;;;;;12.77;76.67;97088.09;5063605;28;20545;-76
2021/10/06 10:40:32;;;;;;;1.77;1.07;;;;;;;13.00;77.41;97090.66;5060998;28;20231;-76
2021/10/06 10:43:11;;;;;;;1.73;1.10;;;;;;;13.11;76.90;97087.19;5074963;28;20264;-75
2021/10/06 10:45:51;;;;;;;1.43;1.10;;;;;;;13.33;74.58;97092.63;5073382;28;20185;-76
2021/10/06 10:48:27;;;;;;;0.97;0.87;;;;;;;13.44;72.51;97085.69;5057446;28;20872;-75
2021/10/06 10:50:52;;;;;;;1.33;1.10;;;;;;;13.76;70.65;97081.53;5069385;28;20184;-75
2021/10/06 10:53:20;;;;;;;2.73;1.00;;;;;;;13.96;67.90;97087.09;5074398;28;20189;-75
2021/10/06 10:56:00;;;;;;;1.63;1.00;;;;;;;14.20;65.81;97076.38;5074954;28;20242;-75
2021/10/06 10:58:32;;;;;;;3.40;0.97;;;;;;;14.32;68.04;97090.28;5074502;28;20209;-75
2021/10/06 11:00:59;;;;;;;0.90;0.90;;;;;;;13.60;69.14;97103.34;5074926;28;20544;-75
2021/10/06 11:03:25;;;;;;;1.67;0.70;;;;;;;12.85;69.67;97106.16;5075119;28;20189;-75
2021/10/06 11:05:54;;;;;;;1.80;0.70;;;;;;;12.48;70.45;97100.41;5074159;28;20185;-75
2021/10/06 11:08:23;;;;;;;1.07;1.00;;;;;;;12.63;74.12;97098.09;5074661;28;20638;-74
2021/10/06 11:11:11;;;;;;;0.80;0.80;;;;;;;13.37;70.97;97096.41;5073865;28;20221;-75
2021/10/06 11:13:48;;;;;;;0.87;0.87;;;;;;;14.11;69.88;97086.53;5073199;28;20186;-76
2021/10/06 11:16:14;;;;;;;3.37;1.10;;;;;;;14.51;69.42;97081.88;5069771;28;20185;-75
2021/10/06 11:18:47;;;;;;;0.70;0.70;;;;;;;14.88;67.41;97073.34;5073455;28;20205;-75
2021/10/06 11:21:41;;;;;;;1.60;0.87;;;;;;;14.96;65.31;97076.34;5074037;28;20185;-75
2021/10/06 11:24:19;;;;;;;4.87;1.10;;;;;;;15.39;64.20;97080.75;5051334;28;20200;-75
2021/10/06 11:26:44;;;;;;;1.20;1.10;;;;;;;15.75;64.64;97073.19;5057038;28;20204;-76
2021/10/06 11:29:10;;;;;;;1.93;1.10;;;;;;;15.49;63.79;97069.47;5073423;28;20637;-74
2021/10/06 11:31:37;;;;;;;0.70;0.70;;;;;;;15.34;61.53;97066.69;5074002;28;20184;-74